Time;durP1;ratioP1;P1;durP2;ratioP2;P2;SDS_P1;SDS_P2;PMS_P1;PMS_P2;Temp;Humidity;BMP_temperature;BMP_pressure;BME280_temperature;BME280_humidity;BME280_pressure;Samples;Min_cycle;Max_cycle;Signal;HPM_P1;HPM_P2
2023/01/19 00:00:22;;;;;;;15.27;8.48;;;;;;;-1.38;94.89;99723.50;6185265;23;20173;-71
2023/01/19 00:02:53;;;;;;;14.73;9.98;;;;;;;-1.55;95.36;99727.00;6187276;23;20150;-71
2023/01/19 00:05:23;;;;;;;27.63;8.55;;;;;;;-1.54;95.95;99736.66;6186728;23;20572;-71
2023/01/19 00:07:52;;;;;;;16.70;10.40;;;;;;;-1.45;96.05;99730.41;6184952;23;20630;-72
2023/01/19 00:10:21;;;;;;;17.00;9.63;;;;;;;-1.52;95.86;99736.50;6185019;23;20185;-73
2023/01/19 00:12:50;;;;;;;16.98;8.55;;;;;;;-1.69;95.94;99738.16;6185429;23;20644;-72
2023/01/19 00:15:20;;;;;;;14.60;9.82;;;;;;;-1.49;95.41;99734.38;6185166;23;20231;-74
2023/01/19 00:17:50;;;;;;;17.13;10.02;;;;;;;-1.58;95.62;99739.75;6185320;23;20185;-71
2023/01/19 00:20:20;;;;;;;14.50;9.40;;;;;;;-1.67;95.63;99745.97;6185389;23;20173;-73
2023/01/19 00:22:49;;;;;;;13.95;10.30;;;;;;;-1.68;95.76;99745.13;6187063;23;20617;-73
2023/01/19 00:25:18;;;;;;;20.02;10.13;;;;;;;-1.54;95.66;99749.91;6185386;23;20189;-73
2023/01/19 00:27:48;;;;;;;16.33;7.78;;;;;;;-1.66;95.65;99759.09;6185102;23;20166;-74
2023/01/19 00:30:17;;;;;;;18.73;11.02;;;;;;;-1.55;95.25;99748.22;6185278;23;20272;-73
2023/01/19 00:32:46;;;;;;;15.13;9.57;;;;;;;-1.69;94.95;99758.56;6185759;23;20162;-73
2023/01/19 00:35:16;;;;;;;14.13;9.68;;;;;;;-1.50;94.75;99753.91;6185324;23;20252;-73
2023/01/19 00:37:46;;;;;;;14.57;9.20;;;;;;;-1.61;94.63;99762.13;6186949;23;20645;-72
2023/01/19 00:40:15;;;;;;;13.63;9.30;;;;;;;-1.77;95.55;99762.81;6185705;23;20158;-73
2023/01/19 00:42:44;;;;;;;11.75;8.40;;;;;;;-1.83;94.97;99767.88;6185321;23;20618;-74
2023/01/19 00:45:17;;;;;;;10.77;8.10;;;;;;;-1.68;95.34;99771.66;6185037;23;20220;-72
2023/01/19 00:47:47;;;;;;;13.20;9.70;;;;;;;-1.52;94.28;99771.81;6185201;23;20505;-73
2023/01/19 00:50:17;;;;;;;12.68;7.97;;;;;;;-1.69;95.09;99775.28;6185382;23;20227;-73
2023/01/19 00:52:47;;;;;;;10.95;7.20;;;;;;;-1.48;94.14;99767.03;6185290;23;20168;-74
2023/01/19 00:55:17;;;;;;;16.83;10.10;;;;;;;-1.63;93.94;99780.00;6184943;23;20193;-73
2023/01/19 00:57:46;;;;;;;10.90;7.35;;;;;;;-1.35;93.13;99763.00;6185102;23;20211;-71
2023/01/19 01:00:18;;;;;;;14.77;8.30;;;;;;;-1.29;91.96;99772.19;6185526;23;20249;-73
2023/01/19 01:02:50;;;;;;;16.25;9.82;;;;;;;-1.36;91.55;99771.97;6187456;23;20516;-72
2023/01/19 01:05:22;;;;;;;13.98;7.57;;;;;;;-1.46;91.87;99771.22;6191448;23;20196;-73
2023/01/19 01:07:53;;;;;;;12.18;8.00;;;;;;;-1.57;91.73;99776.75;6191918;23;20499;-72
2023/01/19 01:10:24;;;;;;;14.32;8.50;;;;;;;-1.67;91.92;99772.50;6193573;23;20166;-74
2023/01/19 01:12:54;;;;;;;10.85;7.18;;;;;;;-1.51;91.70;99773.50;6192713;23;20166;-73
2023/01/19 01:15:26;;;;;;;10.98;8.10;;;;;;;-1.27;90.20;99774.69;6193419;23;20284;-72
2023/01/19 01:17:55;;;;;;;12.63;9.80;;;;;;;-1.32;89.46;99778.63;6191728;23;20645;-72
2023/01/19 01:20:27;;;;;;;14.60;8.07;;;;;;;-1.25;88.37;99773.53;6190125;23;20176;-72
2023/01/19 01:22:58;;;;;;;15.13;9.43;;;;;;;-1.39;89.22;99774.91;6190826;23;20196;-74
2023/01/19 01:25:29;;;;;;;12.70;8.38;;;;;;;-1.57;89.12;99782.06;6191780;23;20240;-72
2023/01/19 01:27:58;;;;;;;12.73;7.22;;;;;;;-1.50;88.98;99790.25;6194186;23;20498;-71
2023/01/19 01:30:27;;;;;;;12.55;7.93;;;;;;;-1.55;88.89;99790.69;6193571;23;20169;-71
2023/01/19 01:32:57;;;;;;;13.85;7.95;;;;;;;-1.47;89.23;99796.09;6194447;23;20170;-71
2023/01/19 01:35:26;;;;;;;13.60;8.15;;;;;;;-1.69;89.28;99790.41;6194014;23;20190;-71
2023/01/19 01:38:00;;;;;;;17.85;9.10;;;;;;;-1.59;89.59;99797.28;6194176;23;20178;-72
2023/01/19 01:40:29;;;;;;;11.23;7.13;;;;;;;-1.56;90.11;99802.31;6193397;23;20216;-72
2023/01/19 01:42:58;;;;;;;11.25;7.68;;;;;;;-1.50;90.08;99801.69;6195081;23;20184;-71
2023/01/19 01:45:32;;;;;;;12.15;7.93;;;;;;;-1.57;89.19;99799.78;6193255;23;20200;-72
2023/01/19 01:48:06;;;;;;;23.05;7.75;;;;;;;-1.66;89.89;99795.41;6192866;23;20173;-73
2023/01/19 01:50:38;;;;;;;10.25;8.07;;;;;;;-1.52;90.14;99793.06;6193608;23;20649;-72
2023/01/19 01:53:14;;;;;;;12.32;8.50;;;;;;;-1.58;89.51;99795.47;6194948;23;20150;-72
2023/01/19 01:55:46;;;;;;;12.60;7.45;;;;;;;-1.56;89.17;99789.03;6192963;23;20189;-72
2023/01/19 01:58:16;;;;;;;12.23;8.27;;;;;;;-1.53;88.68;99796.69;6194716;23;20202;-70
2023/01/19 02:03:31;;;;;;;10.77;7.70;;;;;;;-1.41;88.25;99795.47;6160189;23;20170;-71
2023/01/19 02:06:06;;;;;;;12.43;8.73;;;;;;;-1.50;87.99;99785.75;6184041;23;20194;-71
2023/01/19 02:14:17;;;;;;;11.43;7.40;;;;;;;-1.57;87.53;99792.66;6183947;23;20165;-71
2023/01/19 02:16:47;;;;;;;15.18;8.95;;;;;;;-1.63;89.15;99795.91;6185222;23;20192;-72
2023/01/19 02:19:22;;;;;;;13.70;9.30;;;;;;;-1.79;89.22;99790.44;6183624;23;20193;-71
2023/01/19 02:21:57;;;;;;;12.32;9.20;;;;;;;-1.91;90.02;99786.34;6192283;23;20153;-72
2023/01/19 02:24:28;;;;;;;16.35;10.30;;;;;;;-1.78;90.16;99787.66;6187876;23;20169;-71
2023/01/19 02:26:58;;;;;;;14.65;9.45;;;;;;;-1.92;90.74;99789.97;6184752;23;20541;-71
2023/01/19 02:29:28;;;;;;;16.27;8.88;;;;;;;-2.07;91.20;99791.47;6186317;23;20165;-72
2023/01/19 02:31:58;;;;;;;14.77;8.77;;;;;;;-1.89;92.07;99784.41;6183883;23;20162;-71
2023/01/19 02:34:28;;;;;;;17.77;10.90;;;;;;;-2.00;91.98;99784.59;6184120;23;20212;-72
2023/01/19 02:37:00;;;;;;;14.35;9.45;;;;;;;-2.17;91.91;99782.72;6183507;23;20653;-69
2023/01/19 02:39:37;;;;;;;12.30;9.60;;;;;;;-1.99;92.35;99788.91;6184971;23;20630;-70
2023/01/19 02:42:10;;;;;;;21.80;10.15;;;;;;;-2.02;91.31;99786.53;6183688;23;20176;-71
2023/01/19 02:44:43;;;;;;;16.08;9.30;;;;;;;-2.06;92.30;99793.13;6183640;23;20165;-71
2023/01/19 02:47:14;;;;;;;18.02;9.88;;;;;;;-1.96;91.55;99788.63;6183589;23;20743;-71
2023/01/19 02:49:43;;;;;;;16.15;9.77;;;;;;;-1.94;91.26;99776.06;6183124;23;20196;-72
2023/01/19 02:52:17;;;;;;;12.88;9.05;;;;;;;-2.10;92.20;99775.88;6183872;23;20169;-72
2023/01/19 02:54:56;;;;;;;15.80;9.80;;;;;;;-2.10;91.76;99786.47;6185235;23;20173;-72
2023/01/19 02:57:35;;;;;;;14.73;8.75;;;;;;;-2.05;92.32;99790.34;6191822;23;20150;-72
2023/01/19 03:00:25;;;;;;;14.80;10.48;;;;;;;-1.97;91.18;99792.25;6186895;23;20162;-74
2023/01/19 03:03:09;;;;;;;15.98;10.55;;;;;;;-2.10;91.53;99794.41;6186668;23;20169;-74
2023/01/19 03:05:55;;;;;;;12.68;8.20;;;;;;;-2.16;91.38;99797.66;6184661;23;20657;-73
2023/01/19 03:08:37;;;;;;;14.68;11.15;;;;;;;-2.25;91.36;99800.22;6184002;23;20165;-72
2023/01/19 03:11:11;;;;;;;11.82;9.50;;;;;;;-2.40;92.16;99801.69;6183828;23;20165;-72
2023/01/19 03:13:47;;;;;;;21.30;10.93;;;;;;;-2.33;92.92;99797.47;6183504;23;20708;-70
2023/01/19 03:16:21;;;;;;;18.55;12.13;;;;;;;-2.32;92.90;99796.47;6185784;23;20196;-72
2023/01/19 03:18:55;;;;;;;15.63;10.10;;;;;;;-2.21;92.16;99790.16;6183450;23;20686;-72
2023/01/19 03:21:27;;;;;;;17.63;10.25;;;;;;;-2.25;92.77;99789.63;6183400;23;20170;-73
2023/01/19 03:24:01;;;;;;;15.20;10.05;;;;;;;-2.16;92.27;99793.19;6183280;23;20621;-70
2023/01/19 03:26:37;;;;;;;15.88;10.95;;;;;;;-2.18;91.77;99800.47;6183321;23;20197;-70
2023/01/19 03:29:10;;;;;;;17.95;9.52;;;;;;;-2.11;92.44;99800.69;6183172;23;20157;-73
2023/01/19 03:31:42;;;;;;;19.75;9.50;;;;;;;-2.26;92.28;99797.69;6183195;23;20184;-72
2023/01/19 03:34:15;;;;;;;13.65;9.98;;;;;;;-2.17;91.54;99798.63;6183522;23;20656;-72
2023/01/19 03:36:46;;;;;;;15.23;9.88;;;;;;;-2.26;92.63;99792.41;6183285;23;20193;-73
2023/01/19 03:39:22;;;;;;;17.33;10.70;;;;;;;-2.32;92.39;99785.88;6184731;23;20268;-70
2023/01/19 03:41:56;;;;;;;12.57;9.98;;;;;;;-2.39;93.16;99794.56;6186337;23;20157;-73
2023/01/19 03:44:28;;;;;;;19.48;10.98;;;;;;;-2.33;93.11;99796.63;6184834;23;20161;-73
2023/01/19 03:46:59;;;;;;;15.15;12.18;;;;;;;-2.28;92.49;99800.53;6187426;23;20758;-71
2023/01/19 03:49:30;;;;;;;13.68;10.48;;;;;;;-2.26;92.31;99792.41;6188408;23;20173;-73
2023/01/19 03:52:00;;;;;;;20.77;10.50;;;;;;;-2.20;92.58;99799.78;6187563;23;20178;-71
2023/01/19 03:54:29;;;;;;;21.67;9.55;;;;;;;-2.31;92.33;99810.56;6186345;23;20177;-72
2023/01/19 03:57:00;;;;;;;17.27;10.32;;;;;;;-2.12;91.80;99804.31;6187936;23;20185;-72
2023/01/19 03:59:29;;;;;;;15.80;11.35;;;;;;;-2.31;92.08;99811.41;6186356;23;20186;-71
2023/01/19 04:01:58;;;;;;;19.67;11.70;;;;;;;-2.46;91.92;99810.19;6185882;23;20232;-72
2023/01/19 04:04:27;;;;;;;15.05;10.55;;;;;;;-2.50;93.14;99806.19;6184918;23;20637;-72
2023/01/19 04:06:57;;;;;;;17.60;11.30;;;;;;;-2.40;92.58;99806.97;6186143;23;20192;-71
2023/01/19 04:09:26;;;;;;;17.58;10.52;;;;;;;-2.38;92.98;99809.50;6185274;23;20574;-72
2023/01/19 04:11:56;;;;;;;12.25;10.68;;;;;;;-2.39;93.64;99803.34;6185271;23;20557;-71
2023/01/19 04:14:26;;;;;;;16.77;11.07;;;;;;;-2.24;92.57;99809.84;6188128;23;20154;-72
2023/01/19 04:16:55;;;;;;;18.63;11.20;;;;;;;-2.42;93.25;99811.56;6186281;23;20669;-71
2023/01/19 04:19:25;;;;;;;19.90;12.38;;;;;;;-2.41;92.82;99805.28;6185814;23;20502;-73
2023/01/19 04:21:54;;;;;;;22.10;12.88;;;;;;;-2.45;92.84;99803.09;6185854;23;20549;-73
2023/01/19 04:24:23;;;;;;;17.63;11.82;;;;;;;-2.61;93.54;99803.69;6186029;23;20165;-69
2023/01/19 04:26:53;;;;;;;16.50;12.18;;;;;;;-2.66;93.33;99800.66;6185334;23;20201;-72
2023/01/19 04:29:23;;;;;;;17.80;12.30;;;;;;;-2.57;93.92;99810.41;6185104;23;20173;-72
2023/01/19 04:31:53;;;;;;;22.67;13.32;;;;;;;-2.53;93.13;99816.22;6185485;23;20166;-73
2023/01/19 04:34:23;;;;;;;15.27;10.60;;;;;;;-2.74;93.74;99813.78;6185083;23;20165;-71
2023/01/19 04:36:52;;;;;;;21.15;12.15;;;;;;;-2.72;93.83;99815.31;6184752;23;20193;-72
2023/01/19 04:39:21;;;;;;;17.38;12.15;;;;;;;-2.79;94.05;99810.72;6184863;23;20268;-72
2023/01/19 04:41:51;;;;;;;17.33;11.38;;;;;;;-2.73;93.93;99811.00;6184745;23;20177;-71
2023/01/19 04:44:20;;;;;;;19.42;11.25;;;;;;;-2.69;93.62;99806.25;6184592;23;20170;-72
2023/01/19 04:46:51;;;;;;;17.05;12.57;;;;;;;-2.64;94.03;99804.00;6184750;23;20240;-70
2023/01/19 04:49:21;;;;;;;15.20;12.50;;;;;;;-2.71;94.03;99813.50;6184834;23;20173;-71
2023/01/19 04:51:52;;;;;;;19.25;12.82;;;;;;;-2.81;93.68;99818.81;6184590;23;20220;-72
2023/01/19 04:54:22;;;;;;;19.75;11.20;;;;;;;-2.77;93.99;99814.91;6186304;23;20157;-73
2023/01/19 04:56:51;;;;;;;22.50;12.50;;;;;;;-2.80;94.40;99811.69;6184787;23;20204;-71
2023/01/19 04:59:20;;;;;;;22.35;12.70;;;;;;;-2.74;94.91;99814.63;6184431;23;20508;-71
2023/01/19 05:01:49;;;;;;;18.27;11.73;;;;;;;-2.85;94.66;99813.94;6184263;23;20177;-71
2023/01/19 05:04:21;;;;;;;20.08;13.90;;;;;;;-2.71;95.12;99806.38;6184591;23;20253;-72
2023/01/19 05:06:50;;;;;;;20.40;14.20;;;;;;;-2.93;94.05;99813.81;6184320;23;20224;-72
2023/01/19 05:09:19;;;;;;;21.88;12.60;;;;;;;-2.87;94.47;99813.28;6184132;23;20157;-72
2023/01/19 05:11:49;;;;;;;21.40;12.88;;;;;;;-2.88;94.28;99809.78;6186115;23;20166;-71
2023/01/19 05:14:18;;;;;;;18.20;10.82;;;;;;;-2.82;94.09;99808.38;6184981;23;20552;-71
2023/01/19 05:16:47;;;;;;;16.25;12.73;;;;;;;-2.90;95.00;99816.19;6184461;23;20205;-70
2023/01/19 05:19:16;;;;;;;25.45;12.70;;;;;;;-2.87;94.34;99813.28;6184458;23;20193;-71
2023/01/19 05:21:47;;;;;;;18.95;12.30;;;;;;;-2.95;94.19;99826.38;6186254;23;20161;-71
2023/01/19 05:24:17;;;;;;;20.17;12.73;;;;;;;-3.00;94.25;99823.34;6184887;23;20189;-73
2023/01/19 05:26:46;;;;;;;18.02;12.68;;;;;;;-3.00;94.96;99823.34;6185109;23;20193;-72
2023/01/19 05:29:20;;;;;;;18.88;13.98;;;;;;;-2.98;94.81;99822.19;6185356;23;20201;-73
2023/01/19 05:31:52;;;;;;;26.05;14.52;;;;;;;-2.79;94.15;99832.75;6187857;23;20604;-71
2023/01/19 05:34:25;;;;;;;22.45;13.45;;;;;;;-2.91;93.92;99827.78;6186902;23;20157;-72
2023/01/19 05:37:07;;;;;;;23.58;13.70;;;;;;;-2.94;93.52;99828.03;6184716;23;20189;-71
2023/01/19 05:39:40;;;;;;;19.40;14.00;;;;;;;-2.83;94.52;99836.66;6184537;23;20642;-70
2023/01/19 05:42:10;;;;;;;21.00;12.02;;;;;;;-2.84;93.90;99839.44;6184629;23;20162;-70
2023/01/19 05:44:39;;;;;;;19.20;14.48;;;;;;;-2.95;93.52;99832.50;6184647;23;20169;-71
2023/01/19 05:47:08;;;;;;;16.75;13.13;;;;;;;-2.76;93.21;99835.09;6184150;23;20240;-71
2023/01/19 05:49:38;;;;;;;15.68;11.00;;;;;;;-2.96;93.43;99841.44;6184113;23;20177;-70
2023/01/19 05:52:08;;;;;;;15.90;11.07;;;;;;;-2.83;93.12;99851.72;6183893;23;20248;-71
2023/01/19 05:54:39;;;;;;;20.88;12.38;;;;;;;-2.87;93.04;99850.31;6184027;23;20158;-73
2023/01/19 05:57:09;;;;;;;19.00;12.70;;;;;;;-2.95;93.00;99858.97;6183658;23;20552;-73
2023/01/19 05:59:38;;;;;;;15.82;11.55;;;;;;;-2.81;93.08;99855.88;6183793;23;20562;-72
2023/01/19 06:02:07;;;;;;;16.30;11.90;;;;;;;-2.90;92.48;99867.31;6184053;23;20172;-72
2023/01/19 06:04:36;;;;;;;23.05;14.10;;;;;;;-2.94;92.96;99875.69;6183657;23;20253;-71
2023/01/19 06:07:07;;;;;;;10.73;9.60;;;;;;;-2.92;92.88;99873.75;6185343;23;20610;-71
2023/01/19 06:09:36;;;;;;;16.67;11.50;;;;;;;-3.03;92.41;99868.59;6183902;23;20173;-70
2023/01/19 06:12:06;;;;;;;16.35;11.52;;;;;;;-2.96;92.94;99873.19;6184085;23;20173;-70
2023/01/19 06:14:36;;;;;;;20.73;12.63;;;;;;;-3.03;93.73;99872.06;6183665;23;20157;-71
2023/01/19 06:17:06;;;;;;;21.10;12.45;;;;;;;-2.98;93.17;99869.00;6183929;23;20223;-71
2023/01/19 06:19:35;;;;;;;16.83;12.25;;;;;;;-2.86;92.26;99867.88;6183672;23;20262;-70
2023/01/19 06:22:04;;;;;;;19.67;12.10;;;;;;;-3.01;92.35;99869.28;6184322;23;20232;-72
2023/01/19 06:24:35;;;;;;;20.60;13.65;;;;;;;-2.91;92.74;99864.84;6183904;23;20563;-72
2023/01/19 06:27:05;;;;;;;14.07;11.40;;;;;;;-2.86;92.66;99871.38;6183991;23;20180;-72
2023/01/19 06:29:34;;;;;;;15.82;10.90;;;;;;;-2.97;92.21;99876.81;6183970;23;20169;-72
2023/01/19 06:32:03;;;;;;;19.30;12.45;;;;;;;-2.89;93.40;99882.22;6183717;23;20196;-72
2023/01/19 06:34:33;;;;;;;16.55;12.63;;;;;;;-2.99;92.73;99872.63;6183516;23;20704;-74
2023/01/19 06:37:02;;;;;;;18.38;12.18;;;;;;;-3.03;92.43;99884.47;6183224;23;20173;-72
2023/01/19 06:39:31;;;;;;;18.08;13.07;;;;;;;-3.11;93.18;99875.44;6183423;23;20633;-69
2023/01/19 06:42:02;;;;;;;16.08;11.23;;;;;;;-3.05;93.39;99874.03;6183398;23;20170;-72
2023/01/19 06:44:31;;;;;;;16.52;10.98;;;;;;;-3.16;93.56;99872.38;6183321;23;20488;-71
2023/01/19 06:47:01;;;;;;;19.73;12.93;;;;;;;-3.00;92.91;99871.78;6183708;23;20559;-72
2023/01/19 06:49:43;;;;;;;20.17;12.35;;;;;;;-3.09;92.88;99877.91;6183576;23;20273;-72
2023/01/19 06:52:14;;;;;;;17.27;11.70;;;;;;;-2.96;92.82;99880.31;6184556;23;20176;-71
2023/01/19 06:54:44;;;;;;;25.52;12.75;;;;;;;-2.99;92.40;99877.91;6185454;23;20166;-72
2023/01/19 06:57:15;;;;;;;19.10;12.68;;;;;;;-3.09;91.69;99878.75;6183580;23;20173;-72
2023/01/19 06:59:45;;;;;;;24.23;12.10;;;;;;;-3.02;91.96;99875.56;6183718;23;20334;-72
2023/01/19 07:02:18;;;;;;;13.88;10.82;;;;;;;-3.02;91.79;99872.91;6183854;23;20173;-72
2023/01/19 07:04:56;;;;;;;16.70;10.52;;;;;;;-2.92;91.52;99879.03;6183825;23;20205;-72
2023/01/19 07:07:26;;;;;;;25.55;13.00;;;;;;;-2.84;91.84;99882.63;6185628;23;20538;-70
2023/01/19 07:09:55;;;;;;;33.55;14.25;;;;;;;-2.81;91.13;99881.53;6183512;23;20252;-70
2023/01/19 07:12:26;;;;;;;21.50;12.02;;;;;;;-2.92;91.66;99879.88;6183957;23;20276;-71
2023/01/19 07:14:55;;;;;;;21.20;12.23;;;;;;;-2.89;91.31;99884.88;6183404;23;20227;-72
2023/01/19 07:17:24;;;;;;;24.52;13.77;;;;;;;-2.95;91.82;99889.91;6183947;23;20252;-71
2023/01/19 07:19:53;;;;;;;18.55;12.95;;;;;;;-2.86;91.85;99889.91;6183516;23;20204;-73
2023/01/19 07:22:23;;;;;;;18.08;10.82;;;;;;;-2.81;90.93;99884.19;6183622;23;20169;-71
2023/01/19 07:24:52;;;;;;;26.45;12.55;;;;;;;-2.93;91.20;99887.94;6183440;23;20165;-73
2023/01/19 07:27:21;;;;;;;16.27;11.93;;;;;;;-2.87;90.93;99898.81;6183551;23;20165;-71
2023/01/19 07:29:52;;;;;;;22.02;12.00;;;;;;;-2.73;91.69;99910.78;6183844;23;20583;-71
2023/01/19 07:32:21;;;;;;;15.10;11.48;;;;;;;-2.75;90.76;99902.97;6185476;23;20531;-72
2023/01/19 07:34:50;;;;;;;19.95;12.70;;;;;;;-2.59;90.66;99912.16;6184056;23;20174;-71
2023/01/19 07:37:20;;;;;;;16.80;11.40;;;;;;;-2.61;90.04;99906.19;6185538;23;20652;-72
2023/01/19 07:39:49;;;;;;;17.80;10.95;;;;;;;-2.56;90.02;99907.41;6183500;23;20174;-71
2023/01/19 07:42:22;;;;;;;18.27;10.48;;;;;;;-2.62;89.39;99910.63;6184387;23;20657;-70
2023/01/19 07:44:52;;;;;;;20.30;14.57;;;;;;;-2.49;89.94;99913.81;6184040;23;20166;-71
2023/01/19 07:47:22;;;;;;;17.88;13.52;;;;;;;-2.41;88.64;99905.97;6184220;23;20170;-73
2023/01/19 07:49:51;;;;;;;15.10;11.95;;;;;;;-2.24;87.55;99917.66;6187477;23;20174;-73
2023/01/19 07:52:21;;;;;;;18.70;12.00;;;;;;;-2.20;87.92;99917.22;6186629;23;20169;-72
2023/01/19 07:54:50;;;;;;;25.85;12.40;;;;;;;-2.28;87.58;99919.78;6186360;23;20161;-72
2023/01/19 07:57:20;;;;;;;18.17;11.38;;;;;;;-2.25;88.07;99923.94;6186909;23;20176;-72
2023/01/19 07:59:50;;;;;;;19.02;11.70;;;;;;;-2.27;87.18;99931.16;6186507;23;20177;-73
2023/01/19 08:02:20;;;;;;;13.02;11.10;;;;;;;-2.22;87.11;99927.13;6188445;23;20224;-74
2023/01/19 08:04:49;;;;;;;19.92;10.88;;;;;;;-2.04;86.07;99923.72;6188392;23;20686;-72
2023/01/19 08:07:19;;;;;;;12.07;9.60;;;;;;;-1.97;85.29;99922.16;6187952;23;20168;-71
2023/01/19 08:09:48;;;;;;;15.40;9.80;;;;;;;-1.89;85.38;99916.97;6188740;23;20165;-73
2023/01/19 08:12:17;;;;;;;21.70;11.27;;;;;;;-1.92;84.65;99914.59;6187242;23;20166;-72
2023/01/19 08:14:46;;;;;;;11.45;8.52;;;;;;;-1.91;84.52;99932.19;6187818;23;20193;-70
2023/01/19 08:17:18;;;;;;;13.88;9.52;;;;;;;-1.78;84.27;99936.16;6188989;23;20228;-71
2023/01/19 08:19:47;;;;;;;18.27;8.85;;;;;;;-1.72;83.69;99940.06;6188047;23;20165;-72
2023/01/19 08:22:16;;;;;;;19.88;9.02;;;;;;;-1.70;84.27;99943.41;6188388;23;20188;-72
2023/01/19 08:24:46;;;;;;;16.17;9.43;;;;;;;-1.68;83.16;99941.41;6187025;23;20178;-73
2023/01/19 08:27:18;;;;;;;14.82;9.70;;;;;;;-1.66;83.30;99934.16;6187651;23;20193;-73
2023/01/19 08:29:47;;;;;;;13.98;9.48;;;;;;;-1.54;83.23;99937.44;6186930;23;20156;-72
2023/01/19 08:32:18;;;;;;;12.50;8.80;;;;;;;-1.50;82.27;99936.19;6186518;23;20224;-72
2023/01/19 08:34:47;;;;;;;11.73;8.60;;;;;;;-1.47;81.96;99936.72;6190968;23;20161;-71
2023/01/19 08:37:16;;;;;;;15.60;8.88;;;;;;;-1.31;81.29;99949.34;6189478;23;20181;-70
2023/01/19 08:39:46;;;;;;;14.45;9.75;;;;;;;-1.24;81.58;99950.38;6189913;23;20568;-73
2023/01/19 08:42:15;;;;;;;14.77;9.10;;;;;;;-1.11;79.56;99942.88;6189178;23;20221;-70
2023/01/19 08:44:44;;;;;;;10.20;7.55;;;;;;;-1.07;80.03;99952.25;6190704;23;20150;-71
2023/01/19 08:47:27;;;;;;;12.55;8.95;;;;;;;-1.02;80.24;99949.13;6188522;23;20169;-73
2023/01/19 08:49:56;;;;;;;14.73;9.15;;;;;;;-1.11;79.71;99950.84;6189000;23;20181;-72
2023/01/19 08:52:25;;;;;;;15.98;8.60;;;;;;;-0.97;79.58;99952.19;6188020;23;20176;-71
2023/01/19 08:54:54;;;;;;;11.98;8.48;;;;;;;-1.02;79.52;99951.78;6188396;23;20633;-72
2023/01/19 08:57:24;;;;;;;10.32;8.52;;;;;;;-0.77;78.34;99953.66;6189809;23;20636;-71
2023/01/19 08:59:53;;;;;;;19.00;9.57;;;;;;;-0.85;79.70;99950.94;6185513;23;20165;-72
2023/01/19 09:02:22;;;;;;;11.23;7.63;;;;;;;-0.79;78.87;99950.34;6185026;23;20178;-72
2023/01/19 09:04:53;;;;;;;11.20;7.68;;;;;;;-0.65;78.05;99952.47;6185497;23;20216;-72
2023/01/19 09:07:22;;;;;;;16.88;10.02;;;;;;;-0.52;78.68;99960.03;6185391;23;20212;-70
2023/01/19 09:09:51;;;;;;;12.60;9.20;;;;;;;-0.38;77.26;99954.16;6184966;23;20656;-72
2023/01/19 09:12:20;;;;;;;10.65;7.10;;;;;;;-0.32;78.02;99955.38;6184945;23;20626;-72
2023/01/19 09:14:49;;;;;;;17.33;10.55;;;;;;;-0.12;76.69;99964.81;6184664;23;20193;-72
2023/01/19 09:17:19;;;;;;;8.85;7.95;;;;;;;-0.48;76.95;99964.03;6185474;23;20165;-70
2023/01/19 09:19:48;;;;;;;12.45;8.75;;;;;;;-0.44;76.46;99966.22;6184601;23;20574;-71
2023/01/19 09:22:21;;;;;;;10.80;7.40;;;;;;;-0.51;76.45;99967.00;6186243;23;20207;-71
2023/01/19 09:24:50;;;;;;;17.15;9.45;;;;;;;-0.70;77.14;99965.38;6186528;23;20161;-72
2023/01/19 09:27:19;;;;;;;11.95;7.28;;;;;;;-0.43;77.23;99965.25;6184867;23;20180;-73
2023/01/19 09:29:51;;;;;;;14.25;9.15;;;;;;;-0.14;78.01;99967.63;6186044;23;20617;-72
2023/01/19 09:32:21;;;;;;;16.63;8.82;;;;;;;-0.17;76.01;99967.94;6186693;23;20464;-71
2023/01/19 09:34:52;;;;;;;14.05;7.70;;;;;;;-0.08;75.85;99974.97;6185062;23;20162;-72
2023/01/19 09:37:23;;;;;;;9.98;7.72;;;;;;;-0.20;76.21;99978.06;6187390;23;20161;-71
2023/01/19 09:39:52;;;;;;;12.85;8.70;;;;;;;-0.09;76.15;99975.13;6184604;23;20169;-72
2023/01/19 09:42:30;;;;;;;17.67;8.85;;;;;;;-0.02;75.66;99973.53;6184869;23;20504;-71
2023/01/19 09:45:00;;;;;;;14.50;9.10;;;;;;;0.00;75.37;99968.91;6184906;23;20193;-70
2023/01/19 09:47:33;;;;;;;9.90;7.45;;;;;;;-0.13;76.00;99953.34;6184289;23;20172;-72
2023/01/19 09:50:06;;;;;;;10.20;7.43;;;;;;;-0.10;75.81;99954.88;6183885;23;20188;-70
2023/01/19 09:52:47;;;;;;;9.65;7.38;;;;;;;-0.04;76.18;99952.41;6185685;23;20146;-72
2023/01/19 09:55:22;;;;;;;8.68;7.45;;;;;;;0.08;75.24;99960.94;6184142;23;20193;-71
2023/01/19 09:57:52;;;;;;;11.75;7.50;;;;;;;0.14;75.11;99957.66;6184640;23;20554;-72
2023/01/19 10:00:23;;;;;;;10.50;7.68;;;;;;;0.26;75.21;99947.56;6185485;23;20228;-70
2023/01/19 10:02:57;;;;;;;14.45;7.43;;;;;;;0.41;74.79;99961.94;6184786;23;20243;-70
2023/01/19 10:05:31;;;;;;;18.00;7.93;;;;;;;0.50;73.99;99962.81;6185389;23;20219;-71
2023/01/19 10:08:15;;;;;;;13.63;8.63;;;;;;;0.47;73.99;99960.47;6186643;23;20153;-70
2023/01/19 10:10:51;;;;;;;13.75;8.63;;;;;;;0.43;74.49;99959.97;6184378;23;20162;-70
2023/01/19 10:13:32;;;;;;;11.27;7.63;;;;;;;0.79;73.53;99964.09;6185650;23;20161;-71
2023/01/19 10:16:13;;;;;;;11.38;6.80;;;;;;;0.62;73.31;99964.19;6185528;23;20189;-72
2023/01/19 10:18:47;;;;;;;10.90;6.60;;;;;;;0.64;73.39;99963.03;6185285;23;20244;-71
2023/01/19 10:21:20;;;;;;;18.30;8.03;;;;;;;0.75;73.92;99952.09;6186372;23;20173;-72
2023/01/19 10:23:55;;;;;;;11.65;7.15;;;;;;;0.88;73.07;99949.78;6184860;23;20175;-70
2023/01/19 10:26:27;;;;;;;8.77;7.43;;;;;;;1.07;72.95;99955.81;6184430;23;20193;-70
2023/01/19 10:29:05;;;;;;;15.40;8.00;;;;;;;1.01;72.25;99949.34;6184631;23;20169;-72
2023/01/19 10:31:37;;;;;;;14.50;8.45;;;;;;;0.86;72.75;99945.63;6184972;23;20177;-72
2023/01/19 10:34:07;;;;;;;13.02;7.55;;;;;;;1.09;72.44;99944.00;6184402;23;20168;-72
2023/01/19 10:36:39;;;;;;;14.98;7.47;;;;;;;1.23;71.72;99950.50;6183961;23;20197;-72
2023/01/19 10:39:14;;;;;;;14.48;7.68;;;;;;;1.25;71.87;99951.19;6184536;23;20737;-72
2023/01/19 10:41:48;;;;;;;10.43;7.22;;;;;;;1.53;71.28;99954.38;6184488;23;20161;-70
2023/01/19 10:44:25;;;;;;;10.75;6.65;;;;;;;1.46;70.22;99948.00;6184215;23;20229;-70
2023/01/19 10:46:57;;;;;;;11.95;7.95;;;;;;;1.42;70.42;99944.03;6184532;23;20192;-69
2023/01/19 10:49:30;;;;;;;13.55;8.77;;;;;;;1.31;70.89;99940.69;6184777;23;20209;-71
2023/01/19 10:52:00;;;;;;;13.40;8.77;;;;;;;1.53;70.96;99946.38;6184403;23;20192;-71
2023/01/19 10:54:35;;;;;;;8.40;6.60;;;;;;;1.29;71.10;99940.03;6184423;23;20180;-71
2023/01/19 10:57:07;;;;;;;16.67;7.45;;;;;;;1.23;71.40;99943.34;6184521;23;20169;-73
2023/01/19 10:59:46;;;;;;;10.70;7.45;;;;;;;1.15;71.30;99946.03;6184146;23;20691;-70
2023/01/19 11:02:21;;;;;;;8.18;7.32;;;;;;;1.21;71.61;99933.88;6183781;23;20263;-71
2023/01/19 11:04:52;;;;;;;12.23;7.80;;;;;;;1.41;71.54;99942.34;6185318;23;20149;-71
2023/01/19 11:07:24;;;;;;;18.17;8.65;;;;;;;1.48;71.01;99920.22;6183661;23;20629;-71
2023/01/19 11:10:20;;;;;;;13.57;7.97;;;;;;;1.55;71.21;99931.03;6185014;23;20162;-70
2023/01/19 11:13:01;;;;;;;11.93;8.02;;;;;;;1.53;70.79;99925.03;6187447;23;20204;-71
2023/01/19 11:15:34;;;;;;;14.07;8.00;;;;;;;1.57;70.81;99923.69;6191695;23;20248;-71
2023/01/19 11:18:05;;;;;;;11.98;7.78;;;;;;;1.72;70.84;99928.19;6186663;23;20169;-71
2023/01/19 11:20:48;;;;;;;13.23;7.63;;;;;;;1.79;70.34;99930.19;6184217;23;20180;-71
2023/01/19 11:23:25;;;;;;;10.82;7.57;;;;;;;1.60;70.66;99926.84;6185283;23;20232;-71
2023/01/19 11:26:00;;;;;;;12.98;7.95;;;;;;;1.61;71.17;99925.00;6185827;23;20501;-70
2023/01/19 11:28:33;;;;;;;12.55;8.10;;;;;;;1.68;70.73;99921.53;6185701;23;20172;-71
2023/01/19 11:31:16;;;;;;;10.05;7.80;;;;;;;1.98;70.44;99922.66;6185202;23;20682;-70
2023/01/19 11:33:50;;;;;;;9.90;6.97;;;;;;;1.74;69.75;99920.03;6186809;23;20614;-74
2023/01/19 11:36:22;;;;;;;11.63;7.75;;;;;;;1.94;69.71;99915.13;6188452;23;20263;-74
2023/01/19 11:38:53;;;;;;;15.15;7.60;;;;;;;2.11;69.65;99906.91;6186960;23;20192;-71
2023/01/19 11:41:27;;;;;;;14.88;8.82;;;;;;;2.14;68.81;99905.72;6187469;23;20191;-72
2023/01/19 11:43:58;;;;;;;10.25;7.45;;;;;;;2.17;68.80;99910.75;6188750;23;20634;-70
2023/01/19 11:46:33;;;;;;;13.13;8.57;;;;;;;2.30;68.71;99904.84;6188174;23;20186;-73
2023/01/19 11:49:05;;;;;;;11.85;8.52;;;;;;;2.29;68.59;99908.50;6187719;23;20181;-71
2023/01/19 11:51:43;;;;;;;8.75;7.85;;;;;;;2.22;68.63;99907.56;6187936;23;20695;-70